sensor_id;sensor_type;location;lat;lon;timestamp;P1;durP1;ratioP1;P2;durP2;ratioP2
25657;SDS011;13517;59.320;18.042;2023-11-21T00:01:26;9.07;;;5.05;;
25657;SDS011;13517;59.320;18.042;2023-11-21T00:03:52;8.98;;;4.35;;
25657;SDS011;13517;59.320;18.042;2023-11-21T00:06:20;8.40;;;4.65;;
25657;SDS011;13517;59.320;18.042;2023-11-21T00:08:45;7.63;;;4.47;;
25657;SDS011;13517;59.320;18.042;2023-11-21T00:11:11;6.40;;;4.20;;
25657;SDS011;13517;59.320;18.042;2023-11-21T00:13:36;7.95;;;4.70;;
25657;SDS011;13517;59.320;18.042;2023-11-21T00:16:02;9.05;;;4.68;;
25657;SDS011;13517;59.320;18.042;2023-11-21T00:18:29;7.28;;;4.30;;
25657;SDS011;13517;59.320;18.042;2023-11-21T00:20:54;8.13;;;4.40;;
25657;SDS011;13517;59.320;18.042;2023-11-21T00:23:20;9.05;;;4.40;;
25657;SDS011;13517;59.320;18.042;2023-11-21T00:25:45;8.07;;;4.60;;
25657;SDS011;13517;59.320;18.042;2023-11-21T00:28:11;10.10;;;4.95;;
25657;SDS011;13517;59.320;18.042;2023-11-21T00:30:36;6.63;;;3.90;;
25657;SDS011;13517;59.320;18.042;2023-11-21T00:33:01;8.90;;;4.97;;
25657;SDS011;13517;59.320;18.042;2023-11-21T00:35:27;8.43;;;4.60;;
25657;SDS011;13517;59.320;18.042;2023-11-21T00:37:52;7.45;;;4.43;;
25657;SDS011;13517;59.320;18.042;2023-11-21T00:40:18;6.55;;;4.15;;
25657;SDS011;13517;59.320;18.042;2023-11-21T00:42:47;7.88;;;4.50;;
25657;SDS011;13517;59.320;18.042;2023-11-21T00:45:12;9.38;;;4.22;;
25657;SDS011;13517;59.320;18.042;2023-11-21T00:47:38;8.35;;;4.88;;
25657;SDS011;13517;59.320;18.042;2023-11-21T00:50:04;8.25;;;4.32;;
25657;SDS011;13517;59.320;18.042;2023-11-21T00:52:31;7.82;;;4.78;;
25657;SDS011;13517;59.320;18.042;2023-11-21T00:54:56;9.38;;;5.10;;
25657;SDS011;13517;59.320;18.042;2023-11-21T00:57:24;7.80;;;4.85;;
25657;SDS011;13517;59.320;18.042;2023-11-21T00:59:49;8.57;;;5.10;;
25657;SDS011;13517;59.320;18.042;2023-11-21T01:02:15;8.50;;;4.88;;
25657;SDS011;13517;59.320;18.042;2023-11-21T01:04:40;8.52;;;4.70;;
25657;SDS011;13517;59.320;18.042;2023-11-21T01:07:06;9.27;;;5.13;;
25657;SDS011;13517;59.320;18.042;2023-11-21T01:09:31;9.63;;;5.20;;
25657;SDS011;13517;59.320;18.042;2023-11-21T01:11:57;9.40;;;4.40;;
25657;SDS011;13517;59.320;18.042;2023-11-21T01:14:22;8.68;;;4.80;;
25657;SDS011;13517;59.320;18.042;2023-11-21T01:16:47;9.40;;;5.13;;
25657;SDS011;13517;59.320;18.042;2023-11-21T01:19:14;9.35;;;4.65;;
25657;SDS011;13517;59.320;18.042;2023-11-21T01:21:39;8.32;;;4.60;;
25657;SDS011;13517;59.320;18.042;2023-11-21T01:24:05;6.15;;;4.20;;
25657;SDS011;13517;59.320;18.042;2023-11-21T01:26:32;6.93;;;4.25;;
25657;SDS011;13517;59.320;18.042;2023-11-21T01:28:58;8.80;;;5.03;;
25657;SDS011;13517;59.320;18.042;2023-11-21T01:31:24;7.97;;;5.10;;
25657;SDS011;13517;59.320;18.042;2023-11-21T01:33:52;8.00;;;4.78;;
25657;SDS011;13517;59.320;18.042;2023-11-21T01:36:17;9.60;;;5.45;;
25657;SDS011;13517;59.320;18.042;2023-11-21T01:38:43;7.47;;;4.68;;
25657;SDS011;13517;59.320;18.042;2023-11-21T01:41:08;9.40;;;4.65;;
25657;SDS011;13517;59.320;18.042;2023-11-21T01:43:36;10.68;;;5.22;;
25657;SDS011;13517;59.320;18.042;2023-11-21T01:46:02;9.70;;;5.05;;
25657;SDS011;13517;59.320;18.042;2023-11-21T01:48:28;12.02;;;5.57;;
25657;SDS011;13517;59.320;18.042;2023-11-21T01:50:54;8.30;;;4.97;;
25657;SDS011;13517;59.320;18.042;2023-11-21T01:53:19;9.27;;;4.80;;
25657;SDS011;13517;59.320;18.042;2023-11-21T01:55:45;9.52;;;4.80;;
25657;SDS011;13517;59.320;18.042;2023-11-21T01:58:11;8.43;;;5.00;;
25657;SDS011;13517;59.320;18.042;2023-11-21T02:00:37;8.48;;;5.03;;
25657;SDS011;13517;59.320;18.042;2023-11-21T02:03:03;8.70;;;5.00;;
25657;SDS011;13517;59.320;18.042;2023-11-21T02:05:29;9.95;;;4.68;;
25657;SDS011;13517;59.320;18.042;2023-11-21T02:07:54;8.88;;;5.15;;
25657;SDS011;13517;59.320;18.042;2023-11-21T02:10:20;9.32;;;5.32;;
25657;SDS011;13517;59.320;18.042;2023-11-21T02:12:48;8.98;;;4.80;;
25657;SDS011;13517;59.320;18.042;2023-11-21T02:15:17;9.35;;;5.45;;
25657;SDS011;13517;59.320;18.042;2023-11-21T02:17:46;8.85;;;5.13;;
25657;SDS011;13517;59.320;18.042;2023-11-21T02:20:16;8.15;;;5.15;;
25657;SDS011;13517;59.320;18.042;2023-11-21T02:22:43;8.32;;;5.18;;
25657;SDS011;13517;59.320;18.042;2023-11-21T02:25:10;8.07;;;4.88;;
25657;SDS011;13517;59.320;18.042;2023-11-21T02:27:36;8.25;;;4.72;;
25657;SDS011;13517;59.320;18.042;2023-11-21T02:30:02;8.27;;;5.15;;
25657;SDS011;13517;59.320;18.042;2023-11-21T02:32:29;8.15;;;4.90;;
25657;SDS011;13517;59.320;18.042;2023-11-21T02:34:56;6.90;;;4.47;;
25657;SDS011;13517;59.320;18.042;2023-11-21T02:37:25;7.75;;;4.75;;
25657;SDS011;13517;59.320;18.042;2023-11-21T02:39:51;7.40;;;4.82;;
25657;SDS011;13517;59.320;18.042;2023-11-21T02:42:17;8.63;;;5.07;;
25657;SDS011;13517;59.320;18.042;2023-11-21T02:44:43;8.82;;;5.00;;
25657;SDS011;13517;59.320;18.042;2023-11-21T02:47:09;8.35;;;5.18;;
25657;SDS011;13517;59.320;18.042;2023-11-21T02:49:34;8.95;;;4.82;;
25657;SDS011;13517;59.320;18.042;2023-11-21T02:52:00;7.57;;;4.63;;
25657;SDS011;13517;59.320;18.042;2023-11-21T02:54:26;8.27;;;4.82;;
25657;SDS011;13517;59.320;18.042;2023-11-21T02:56:52;8.98;;;5.10;;
25657;SDS011;13517;59.320;18.042;2023-11-21T02:59:18;9.52;;;5.05;;
25657;SDS011;13517;59.320;18.042;2023-11-21T03:01:44;11.15;;;5.35;;
25657;SDS011;13517;59.320;18.042;2023-11-21T03:04:10;7.63;;;4.88;;
25657;SDS011;13517;59.320;18.042;2023-11-21T03:06:36;7.63;;;5.15;;
25657;SDS011;13517;59.320;18.042;2023-11-21T03:09:01;7.68;;;4.75;;
25657;SDS011;13517;59.320;18.042;2023-11-21T03:11:26;7.57;;;4.68;;
25657;SDS011;13517;59.320;18.042;2023-11-21T03:13:52;6.57;;;4.50;;
25657;SDS011;13517;59.320;18.042;2023-11-21T03:16:18;8.65;;;5.10;;
25657;SDS011;13517;59.320;18.042;2023-11-21T03:18:44;8.25;;;4.88;;
25657;SDS011;13517;59.320;18.042;2023-11-21T03:21:09;9.90;;;5.07;;
25657;SDS011;13517;59.320;18.042;2023-11-21T03:23:35;6.80;;;4.43;;
25657;SDS011;13517;59.320;18.042;2023-11-21T03:26:01;7.30;;;4.60;;
25657;SDS011;13517;59.320;18.042;2023-11-21T03:28:27;8.80;;;5.45;;
25657;SDS011;13517;59.320;18.042;2023-11-21T03:30:53;7.03;;;4.75;;
25657;SDS011;13517;59.320;18.042;2023-11-21T03:33:19;6.65;;;4.05;;
25657;SDS011;13517;59.320;18.042;2023-11-21T03:35:45;7.45;;;4.68;;
25657;SDS011;13517;59.320;18.042;2023-11-21T03:38:11;7.03;;;4.57;;
25657;SDS011;13517;59.320;18.042;2023-11-21T03:40:37;7.47;;;4.95;;
25657;SDS011;13517;59.320;18.042;2023-11-21T03:43:04;8.27;;;5.13;;
25657;SDS011;13517;59.320;18.042;2023-11-21T03:45:30;8.75;;;5.20;;
25657;SDS011;13517;59.320;18.042;2023-11-21T03:47:55;9.07;;;4.80;;
25657;SDS011;13517;59.320;18.042;2023-11-21T03:50:21;7.20;;;4.68;;
25657;SDS011;13517;59.320;18.042;2023-11-21T03:52:46;7.28;;;4.45;;
25657;SDS011;13517;59.320;18.042;2023-11-21T03:55:11;8.63;;;4.88;;
25657;SDS011;13517;59.320;18.042;2023-11-21T03:57:37;10.23;;;5.40;;
25657;SDS011;13517;59.320;18.042;2023-11-21T04:00:03;9.38;;;5.22;;
25657;SDS011;13517;59.320;18.042;2023-11-21T04:02:33;9.27;;;5.30;;
25657;SDS011;13517;59.320;18.042;2023-11-21T04:04:59;11.05;;;5.95;;
25657;SDS011;13517;59.320;18.042;2023-11-21T04:07:25;8.10;;;5.22;;
25657;SDS011;13517;59.320;18.042;2023-11-21T04:09:50;9.27;;;5.20;;
25657;SDS011;13517;59.320;18.042;2023-11-21T04:12:15;8.75;;;5.18;;
25657;SDS011;13517;59.320;18.042;2023-11-21T04:14:41;10.63;;;5.00;;
25657;SDS011;13517;59.320;18.042;2023-11-21T04:17:06;10.35;;;5.65;;
25657;SDS011;13517;59.320;18.042;2023-11-21T04:19:32;9.52;;;5.53;;
25657;SDS011;13517;59.320;18.042;2023-11-21T04:21:57;10.27;;;5.40;;
25657;SDS011;13517;59.320;18.042;2023-11-21T04:24:22;8.70;;;5.15;;
25657;SDS011;13517;59.320;18.042;2023-11-21T04:26:48;8.45;;;5.32;;
25657;SDS011;13517;59.320;18.042;2023-11-21T04:29:13;7.50;;;5.15;;
25657;SDS011;13517;59.320;18.042;2023-11-21T04:31:39;10.27;;;5.78;;
25657;SDS011;13517;59.320;18.042;2023-11-21T04:34:04;7.85;;;5.07;;
25657;SDS011;13517;59.320;18.042;2023-11-21T04:36:30;8.45;;;5.45;;
25657;SDS011;13517;59.320;18.042;2023-11-21T04:38:59;7.03;;;4.88;;
25657;SDS011;13517;59.320;18.042;2023-11-21T04:41:25;8.73;;;5.07;;
25657;SDS011;13517;59.320;18.042;2023-11-21T04:43:50;8.45;;;5.38;;
25657;SDS011;13517;59.320;18.042;2023-11-21T04:46:16;7.78;;;4.93;;
25657;SDS011;13517;59.320;18.042;2023-11-21T04:48:41;9.75;;;4.60;;
25657;SDS011;13517;59.320;18.042;2023-11-21T04:51:07;7.93;;;5.05;;
25657;SDS011;13517;59.320;18.042;2023-11-21T04:53:32;9.00;;;5.28;;
25657;SDS011;13517;59.320;18.042;2023-11-21T04:55:57;9.68;;;4.53;;
25657;SDS011;13517;59.320;18.042;2023-11-21T04:58:23;11.30;;;4.60;;
25657;SDS011;13517;59.320;18.042;2023-11-21T05:00:49;6.93;;;4.13;;
25657;SDS011;13517;59.320;18.042;2023-11-21T05:03:15;7.05;;;4.57;;
25657;SDS011;13517;59.320;18.042;2023-11-21T05:05:40;6.20;;;4.32;;
25657;SDS011;13517;59.320;18.042;2023-11-21T05:08:05;6.00;;;4.00;;
25657;SDS011;13517;59.320;18.042;2023-11-21T05:10:31;6.82;;;4.05;;
25657;SDS011;13517;59.320;18.042;2023-11-21T05:12:56;6.13;;;3.63;;
25657;SDS011;13517;59.320;18.042;2023-11-21T05:15:21;8.48;;;4.35;;
25657;SDS011;13517;59.320;18.042;2023-11-21T05:17:48;4.88;;;3.67;;
25657;SDS011;13517;59.320;18.042;2023-11-21T05:20:15;8.90;;;4.68;;
25657;SDS011;13517;59.320;18.042;2023-11-21T05:22:49;6.82;;;4.22;;
25657;SDS011;13517;59.320;18.042;2023-11-21T05:25:15;5.75;;;3.70;;
25657;SDS011;13517;59.320;18.042;2023-11-21T05:27:43;6.63;;;4.15;;
25657;SDS011;13517;59.320;18.042;2023-11-21T05:30:09;6.53;;;4.15;;
25657;SDS011;13517;59.320;18.042;2023-11-21T05:32:37;5.63;;;4.07;;
25657;SDS011;13517;59.320;18.042;2023-11-21T05:35:02;7.38;;;4.30;;
25657;SDS011;13517;59.320;18.042;2023-11-21T05:37:28;5.18;;;3.67;;
25657;SDS011;13517;59.320;18.042;2023-11-21T05:39:55;5.88;;;3.72;;
25657;SDS011;13517;59.320;18.042;2023-11-21T05:42:21;6.45;;;4.38;;
25657;SDS011;13517;59.320;18.042;2023-11-21T05:44:48;6.45;;;4.10;;
25657;SDS011;13517;59.320;18.042;2023-11-21T05:47:13;5.85;;;4.05;;
25657;SDS011;13517;59.320;18.042;2023-11-21T05:49:39;5.22;;;3.72;;
25657;SDS011;13517;59.320;18.042;2023-11-21T05:52:04;5.25;;;3.65;;
25657;SDS011;13517;59.320;18.042;2023-11-21T05:54:30;5.78;;;3.95;;
25657;SDS011;13517;59.320;18.042;2023-11-21T05:56:56;7.57;;;4.22;;
25657;SDS011;13517;59.320;18.042;2023-11-21T05:59:21;7.03;;;3.97;;
25657;SDS011;13517;59.320;18.042;2023-11-21T06:01:47;5.10;;;3.97;;
25657;SDS011;13517;59.320;18.042;2023-11-21T06:04:13;7.05;;;4.18;;
25657;SDS011;13517;59.320;18.042;2023-11-21T06:06:38;5.43;;;3.75;;
25657;SDS011;13517;59.320;18.042;2023-11-21T06:09:04;4.65;;;3.53;;
25657;SDS011;13517;59.320;18.042;2023-11-21T06:11:32;4.45;;;3.28;;
25657;SDS011;13517;59.320;18.042;2023-11-21T06:13:57;5.25;;;2.92;;
25657;SDS011;13517;59.320;18.042;2023-11-21T06:16:23;4.32;;;3.45;;
25657;SDS011;13517;59.320;18.042;2023-11-21T06:18:49;5.53;;;4.18;;
25657;SDS011;13517;59.320;18.042;2023-11-21T06:21:14;4.43;;;3.50;;
25657;SDS011;13517;59.320;18.042;2023-11-21T06:23:41;7.15;;;4.85;;
25657;SDS011;13517;59.320;18.042;2023-11-21T06:26:07;5.80;;;3.63;;
25657;SDS011;13517;59.320;18.042;2023-11-21T06:28:34;5.32;;;3.65;;
25657;SDS011;13517;59.320;18.042;2023-11-21T06:31:01;7.35;;;3.95;;
25657;SDS011;13517;59.320;18.042;2023-11-21T06:33:30;4.13;;;3.40;;
25657;SDS011;13517;59.320;18.042;2023-11-21T06:35:59;8.52;;;4.28;;
25657;SDS011;13517;59.320;18.042;2023-11-21T06:38:27;4.97;;;3.58;;
25657;SDS011;13517;59.320;18.042;2023-11-21T06:40:54;4.85;;;3.63;;
25657;SDS011;13517;59.320;18.042;2023-11-21T06:43:20;6.22;;;4.03;;
25657;SDS011;13517;59.320;18.042;2023-11-21T06:45:46;7.10;;;4.28;;
25657;SDS011;13517;59.320;18.042;2023-11-21T06:48:12;6.78;;;3.95;;
25657;SDS011;13517;59.320;18.042;2023-11-21T06:50:37;6.55;;;4.18;;
25657;SDS011;13517;59.320;18.042;2023-11-21T06:53:03;7.28;;;4.20;;
25657;SDS011;13517;59.320;18.042;2023-11-21T06:55:31;5.80;;;3.85;;
25657;SDS011;13517;59.320;18.042;2023-11-21T06:57:57;6.55;;;4.50;;
25657;SDS011;13517;59.320;18.042;2023-11-21T07:00:23;6.30;;;4.07;;
25657;SDS011;13517;59.320;18.042;2023-11-21T07:02:48;7.20;;;4.25;;
25657;SDS011;13517;59.320;18.042;2023-11-21T07:05:14;5.85;;;4.35;;
25657;SDS011;13517;59.320;18.042;2023-11-21T07:07:40;7.00;;;4.38;;
25657;SDS011;13517;59.320;18.042;2023-11-21T07:10:06;6.20;;;4.18;;
25657;SDS011;13517;59.320;18.042;2023-11-21T07:12:33;7.03;;;3.97;;
25657;SDS011;13517;59.320;18.042;2023-11-21T07:14:59;6.40;;;3.95;;
25657;SDS011;13517;59.320;18.042;2023-11-21T07:17:24;6.65;;;4.05;;
25657;SDS011;13517;59.320;18.042;2023-11-21T07:19:50;5.00;;;3.45;;
25657;SDS011;13517;59.320;18.042;2023-11-21T07:22:16;6.15;;;4.28;;
25657;SDS011;13517;59.320;18.042;2023-11-21T07:24:47;5.88;;;3.95;;
25657;SDS011;13517;59.320;18.042;2023-11-21T07:27:15;7.32;;;4.22;;
25657;SDS011;13517;59.320;18.042;2023-11-21T07:29:40;7.10;;;4.28;;
25657;SDS011;13517;59.320;18.042;2023-11-21T07:32:06;7.47;;;4.00;;
25657;SDS011;13517;59.320;18.042;2023-11-21T07:34:31;6.75;;;4.28;;
25657;SDS011;13517;59.320;18.042;2023-11-21T07:36:57;4.97;;;3.78;;
25657;SDS011;13517;59.320;18.042;2023-11-21T07:39:22;5.93;;;4.13;;
25657;SDS011;13517;59.320;18.042;2023-11-21T07:41:47;4.38;;;3.83;;
25657;SDS011;13517;59.320;18.042;2023-11-21T07:44:18;6.65;;;4.00;;
25657;SDS011;13517;59.320;18.042;2023-11-21T07:46:44;6.45;;;3.80;;
25657;SDS011;13517;59.320;18.042;2023-11-21T07:49:10;6.72;;;3.85;;
25657;SDS011;13517;59.320;18.042;2023-11-21T07:51:36;5.60;;;3.53;;
25657;SDS011;13517;59.320;18.042;2023-11-21T07:54:01;6.72;;;3.75;;
25657;SDS011;13517;59.320;18.042;2023-11-21T07:56:27;4.80;;;3.03;;
25657;SDS011;13517;59.320;18.042;2023-11-21T07:58:52;5.45;;;3.78;;
25657;SDS011;13517;59.320;18.042;2023-11-21T08:01:18;5.07;;;3.40;;
25657;SDS011;13517;59.320;18.042;2023-11-21T08:03:44;9.20;;;4.40;;
25657;SDS011;13517;59.320;18.042;2023-11-21T08:06:09;6.57;;;4.28;;
25657;SDS011;13517;59.320;18.042;2023-11-21T08:08:34;5.32;;;3.40;;
25657;SDS011;13517;59.320;18.042;2023-11-21T08:11:01;5.53;;;3.75;;
25657;SDS011;13517;59.320;18.042;2023-11-21T08:13:27;6.35;;;3.90;;
25657;SDS011;13517;59.320;18.042;2023-11-21T08:15:54;4.10;;;3.08;;
25657;SDS011;13517;59.320;18.042;2023-11-21T08:18:21;5.90;;;3.53;;
25657;SDS011;13517;59.320;18.042;2023-11-21T08:20:48;6.50;;;3.83;;
25657;SDS011;13517;59.320;18.042;2023-11-21T08:23:16;8.40;;;3.50;;
25657;SDS011;13517;59.320;18.042;2023-11-21T08:25:43;6.20;;;3.42;;
25657;SDS011;13517;59.320;18.042;2023-11-21T08:28:09;6.03;;;3.60;;
25657;SDS011;13517;59.320;18.042;2023-11-21T08:30:35;6.32;;;3.47;;
25657;SDS011;13517;59.320;18.042;2023-11-21T08:33:00;4.30;;;3.10;;
25657;SDS011;13517;59.320;18.042;2023-11-21T08:35:28;6.70;;;3.35;;
25657;SDS011;13517;59.320;18.042;2023-11-21T08:37:53;5.32;;;3.30;;
25657;SDS011;13517;59.320;18.042;2023-11-21T08:40:19;5.10;;;3.40;;
25657;SDS011;13517;59.320;18.042;2023-11-21T08:42:46;4.35;;;3.38;;
25657;SDS011;13517;59.320;18.042;2023-11-21T08:45:11;7.53;;;4.15;;
25657;SDS011;13517;59.320;18.042;2023-11-21T08:47:38;6.63;;;3.20;;
25657;SDS011;13517;59.320;18.042;2023-11-21T08:50:05;7.28;;;3.70;;
25657;SDS011;13517;59.320;18.042;2023-11-21T08:52:32;4.75;;;3.65;;
25657;SDS011;13517;59.320;18.042;2023-11-21T08:55:02;6.00;;;3.88;;
25657;SDS011;13517;59.320;18.042;2023-11-21T08:57:33;4.93;;;3.13;;
25657;SDS011;13517;59.320;18.042;2023-11-21T09:00:02;7.72;;;3.35;;
25657;SDS011;13517;59.320;18.042;2023-11-21T09:02:32;8.43;;;4.10;;
25657;SDS011;13517;59.320;18.042;2023-11-21T09:04:58;5.78;;;3.25;;
25657;SDS011;13517;59.320;18.042;2023-11-21T09:07:24;5.03;;;3.20;;
25657;SDS011;13517;59.320;18.042;2023-11-21T09:09:49;8.23;;;3.42;;
25657;SDS011;13517;59.320;18.042;2023-11-21T09:12:15;4.47;;;2.78;;
25657;SDS011;13517;59.320;18.042;2023-11-21T09:14:42;4.13;;;2.75;;
25657;SDS011;13517;59.320;18.042;2023-11-21T09:17:09;3.78;;;2.75;;
25657;SDS011;13517;59.320;18.042;2023-11-21T09:19:37;4.75;;;2.55;;
25657;SDS011;13517;59.320;18.042;2023-11-21T09:22:03;3.95;;;2.42;;
25657;SDS011;13517;59.320;18.042;2023-11-21T09:24:30;3.83;;;2.53;;
25657;SDS011;13517;59.320;18.042;2023-11-21T09:26:56;4.68;;;2.83;;
25657;SDS011;13517;59.320;18.042;2023-11-21T09:29:22;3.15;;;2.17;;
25657;SDS011;13517;59.320;18.042;2023-11-21T09:31:47;6.53;;;2.70;;
25657;SDS011;13517;59.320;18.042;2023-11-21T09:34:13;4.20;;;2.45;;
25657;SDS011;13517;59.320;18.042;2023-11-21T09:36:40;4.05;;;2.33;;
25657;SDS011;13517;59.320;18.042;2023-11-21T09:39:06;6.00;;;2.80;;
25657;SDS011;13517;59.320;18.042;2023-11-21T09:41:37;5.38;;;3.47;;
25657;SDS011;13517;59.320;18.042;2023-11-21T09:44:09;4.50;;;2.85;;
25657;SDS011;13517;59.320;18.042;2023-11-21T09:46:42;3.38;;;2.47;;
25657;SDS011;13517;59.320;18.042;2023-11-21T09:49:10;4.68;;;2.97;;
25657;SDS011;13517;59.320;18.042;2023-11-21T09:51:42;4.93;;;3.05;;
25657;SDS011;13517;59.320;18.042;2023-11-21T09:54:09;4.25;;;2.92;;
25657;SDS011;13517;59.320;18.042;2023-11-21T09:56:37;4.57;;;2.90;;
25657;SDS011;13517;59.320;18.042;2023-11-21T09:59:03;7.53;;;3.42;;
25657;SDS011;13517;59.320;18.042;2023-11-21T10:01:32;7.05;;;3.72;;
25657;SDS011;13517;59.320;18.042;2023-11-21T10:03:58;6.30;;;3.17;;
25657;SDS011;13517;59.320;18.042;2023-11-21T10:06:24;6.72;;;3.40;;
25657;SDS011;13517;59.320;18.042;2023-11-21T10:08:52;5.03;;;3.47;;
25657;SDS011;13517;59.320;18.042;2023-11-21T10:11:20;5.97;;;3.67;;
25657;SDS011;13517;59.320;18.042;2023-11-21T10:13:49;4.60;;;3.42;;
25657;SDS011;13517;59.320;18.042;2023-11-21T10:16:19;5.97;;;3.08;;
25657;SDS011;13517;59.320;18.042;2023-11-21T10:18:46;5.13;;;3.53;;
25657;SDS011;13517;59.320;18.042;2023-11-21T10:21:14;9.00;;;3.00;;
25657;SDS011;13517;59.320;18.042;2023-11-21T10:23:40;7.63;;;3.30;;
25657;SDS011;13517;59.320;18.042;2023-11-21T10:26:06;6.80;;;3.42;;
25657;SDS011;13517;59.320;18.042;2023-11-21T10:28:37;6.20;;;3.60;;
25657;SDS011;13517;59.320;18.042;2023-11-21T10:31:06;7.63;;;3.90;;
25657;SDS011;13517;59.320;18.042;2023-11-21T10:33:32;8.82;;;3.70;;
25657;SDS011;13517;59.320;18.042;2023-11-21T10:35:57;4.38;;;3.10;;
25657;SDS011;13517;59.320;18.042;2023-11-21T10:38:24;6.25;;;3.58;;
25657;SDS011;13517;59.320;18.042;2023-11-21T10:40:52;7.85;;;4.03;;
25657;SDS011;13517;59.320;18.042;2023-11-21T10:43:20;6.57;;;3.90;;
25657;SDS011;13517;59.320;18.042;2023-11-21T10:45:50;6.32;;;3.58;;
25657;SDS011;13517;59.320;18.042;2023-11-21T10:48:15;8.80;;;4.43;;
25657;SDS011;13517;59.320;18.042;2023-11-21T10:50:42;7.78;;;4.47;;
25657;SDS011;13517;59.320;18.042;2023-11-21T10:53:09;8.40;;;4.50;;
25657;SDS011;13517;59.320;18.042;2023-11-21T10:55:37;9.02;;;4.15;;
25657;SDS011;13517;59.320;18.042;2023-11-21T10:58:02;7.43;;;3.80;;
25657;SDS011;13517;59.320;18.042;2023-11-21T11:00:30;7.07;;;4.20;;
25657;SDS011;13517;59.320;18.042;2023-11-21T11:02:56;6.32;;;4.07;;
25657;SDS011;13517;59.320;18.042;2023-11-21T11:05:24;6.28;;;3.85;;
25657;SDS011;13517;59.320;18.042;2023-11-21T11:07:51;6.40;;;4.10;;
25657;SDS011;13517;59.320;18.042;2023-11-21T11:10:22;9.32;;;5.07;;
25657;SDS011;13517;59.320;18.042;2023-11-21T11:12:51;6.93;;;4.03;;
25657;SDS011;13517;59.320;18.042;2023-11-21T11:15:17;6.93;;;4.47;;
25657;SDS011;13517;59.320;18.042;2023-11-21T11:17:45;6.38;;;4.05;;
25657;SDS011;13517;59.320;18.042;2023-11-21T11:20:11;5.10;;;3.80;;
25657;SDS011;13517;59.320;18.042;2023-11-21T11:28:15;6.35;;;4.20;;
25657;SDS011;13517;59.320;18.042;2023-11-21T11:39:26;6.65;;;3.17;;
25657;SDS011;13517;59.320;18.042;2023-11-21T11:42:01;6.25;;;3.38;;
25657;SDS011;13517;59.320;18.042;2023-11-21T11:47:16;7.32;;;2.85;;
25657;SDS011;13517;59.320;18.042;2023-11-21T11:52:31;3.47;;;2.60;;
25657;SDS011;13517;59.320;18.042;2023-11-21T11:55:13;4.15;;;2.90;;
25657;SDS011;13517;59.320;18.042;2023-11-21T11:57:43;5.18;;;3.45;;
25657;SDS011;13517;59.320;18.042;2023-11-21T12:02:53;5.18;;;3.40;;
25657;SDS011;13517;59.320;18.042;2023-11-21T12:05:21;6.10;;;3.72;;
25657;SDS011;13517;59.320;18.042;2023-11-21T12:07:54;7.20;;;4.13;;
25657;SDS011;13517;59.320;18.042;2023-11-21T12:12:52;4.13;;;2.85;;
25657;SDS011;13517;59.320;18.042;2023-11-21T12:15:23;3.90;;;2.97;;
25657;SDS011;13517;59.320;18.042;2023-11-21T12:17:49;4.00;;;2.95;;
25657;SDS011;13517;59.320;18.042;2023-11-21T12:20:16;4.75;;;3.08;;
25657;SDS011;13517;59.320;18.042;2023-11-21T12:22:48;5.90;;;4.05;;
25657;SDS011;13517;59.320;18.042;2023-11-21T12:27:53;3.95;;;2.40;;
25657;SDS011;13517;59.320;18.042;2023-11-21T12:30:20;4.28;;;2.13;;
25657;SDS011;13517;59.320;18.042;2023-11-21T12:32:48;3.50;;;2.60;;
25657;SDS011;13517;59.320;18.042;2023-11-21T12:35:16;7.35;;;2.75;;
25657;SDS011;13517;59.320;18.042;2023-11-21T12:37:44;4.55;;;2.75;;
25657;SDS011;13517;59.320;18.042;2023-11-21T12:40:12;3.42;;;2.28;;
25657;SDS011;13517;59.320;18.042;2023-11-21T12:42:46;5.30;;;2.25;;
25657;SDS011;13517;59.320;18.042;2023-11-21T12:48:01;5.25;;;1.92;;
25657;SDS011;13517;59.320;18.042;2023-11-21T12:50:32;2.22;;;1.77;;
25657;SDS011;13517;59.320;18.042;2023-11-21T12:53:02;5.05;;;2.67;;
25657;SDS011;13517;59.320;18.042;2023-11-21T12:55:37;3.78;;;2.20;;
25657;SDS011;13517;59.320;18.042;2023-11-21T12:58:04;3.63;;;1.90;;
25657;SDS011;13517;59.320;18.042;2023-11-21T13:00:34;4.40;;;2.10;;
25657;SDS011;13517;59.320;18.042;2023-11-21T13:03:12;2.85;;;2.03;;
25657;SDS011;13517;59.320;18.042;2023-11-21T13:05:41;4.15;;;1.95;;
25657;SDS011;13517;59.320;18.042;2023-11-21T13:08:10;3.70;;;2.17;;
25657;SDS011;13517;59.320;18.042;2023-11-21T13:10:41;3.20;;;1.90;;
25657;SDS011;13517;59.320;18.042;2023-11-21T13:13:10;3.05;;;1.83;;
25657;SDS011;13517;59.320;18.042;2023-11-21T13:15:49;3.20;;;2.40;;
25657;SDS011;13517;59.320;18.042;2023-11-21T13:18:15;2.67;;;1.90;;
25657;SDS011;13517;59.320;18.042;2023-11-21T13:20:41;7.80;;;2.10;;
25657;SDS011;13517;59.320;18.042;2023-11-21T13:23:08;3.55;;;1.80;;
25657;SDS011;13517;59.320;18.042;2023-11-21T13:25:37;3.47;;;2.20;;
25657;SDS011;13517;59.320;18.042;2023-11-21T13:28:06;2.40;;;1.60;;
25657;SDS011;13517;59.320;18.042;2023-11-21T13:30:32;2.95;;;1.75;;
25657;SDS011;13517;59.320;18.042;2023-11-21T13:33:01;3.53;;;2.10;;
25657;SDS011;13517;59.320;18.042;2023-11-21T13:35:31;2.38;;;1.90;;
25657;SDS011;13517;59.320;18.042;2023-11-21T13:38:06;4.47;;;2.40;;
25657;SDS011;13517;59.320;18.042;2023-11-21T13:40:34;4.97;;;2.20;;
25657;SDS011;13517;59.320;18.042;2023-11-21T13:43:07;2.85;;;1.90;;
25657;SDS011;13517;59.320;18.042;2023-11-21T13:45:44;6.65;;;2.00;;
25657;SDS011;13517;59.320;18.042;2023-11-21T13:48:11;3.33;;;1.73;;
25657;SDS011;13517;59.320;18.042;2023-11-21T13:50:56;5.15;;;1.90;;
25657;SDS011;13517;59.320;18.042;2023-11-21T13:53:28;5.47;;;2.08;;
25657;SDS011;13517;59.320;18.042;2023-11-21T13:55:54;2.38;;;1.73;;
25657;SDS011;13517;59.320;18.042;2023-11-21T13:58:21;3.35;;;1.95;;
25657;SDS011;13517;59.320;18.042;2023-11-21T14:01:04;4.22;;;2.20;;
25657;SDS011;13517;59.320;18.042;2023-11-21T14:03:38;7.55;;;1.92;;
25657;SDS011;13517;59.320;18.042;2023-11-21T14:06:09;2.20;;;1.70;;
25657;SDS011;13517;59.320;18.042;2023-11-21T14:08:39;6.70;;;2.65;;
25657;SDS011;13517;59.320;18.042;2023-11-21T14:11:06;3.17;;;2.10;;
25657;SDS011;13517;59.320;18.042;2023-11-21T14:13:32;8.90;;;3.25;;
25657;SDS011;13517;59.320;18.042;2023-11-21T14:15:58;4.53;;;2.40;;
25657;SDS011;13517;59.320;18.042;2023-11-21T14:18:26;5.30;;;1.85;;
25657;SDS011;13517;59.320;18.042;2023-11-21T14:21:15;5.53;;;2.40;;
25657;SDS011;13517;59.320;18.042;2023-11-21T14:23:41;3.63;;;2.30;;
25657;SDS011;13517;59.320;18.042;2023-11-21T14:26:08;5.75;;;2.65;;
25657;SDS011;13517;59.320;18.042;2023-11-21T14:28:33;3.42;;;2.03;;
25657;SDS011;13517;59.320;18.042;2023-11-21T14:31:00;6.35;;;2.13;;
25657;SDS011;13517;59.320;18.042;2023-11-21T14:33:26;3.42;;;2.35;;
25657;SDS011;13517;59.320;18.042;2023-11-21T14:35:52;4.75;;;2.50;;
25657;SDS011;13517;59.320;18.042;2023-11-21T14:38:17;5.70;;;2.50;;
25657;SDS011;13517;59.320;18.042;2023-11-21T14:40:43;4.00;;;2.63;;
25657;SDS011;13517;59.320;18.042;2023-11-21T14:43:09;4.15;;;2.45;;
25657;SDS011;13517;59.320;18.042;2023-11-21T14:45:35;3.50;;;2.50;;
25657;SDS011;13517;59.320;18.042;2023-11-21T14:48:00;5.07;;;3.03;;
25657;SDS011;13517;59.320;18.042;2023-11-21T14:50:32;4.53;;;2.72;;
25657;SDS011;13517;59.320;18.042;2023-11-21T14:53:08;4.68;;;2.83;;
25657;SDS011;13517;59.320;18.042;2023-11-21T14:55:34;4.93;;;2.50;;
25657;SDS011;13517;59.320;18.042;2023-11-21T14:58:16;5.72;;;2.92;;
25657;SDS011;13517;59.320;18.042;2023-11-21T15:00:51;5.53;;;2.92;;
25657;SDS011;13517;59.320;18.042;2023-11-21T15:03:22;9.35;;;3.45;;